Terminal Aerodrome Forecast
Issued by NWS Upton, NY

Home | Current Version | Previous Version | Text Only | Print | Product List | Glossary On
Versions: 1 2 3 4 5 6 7 8 9 10 11 12 13 14 15 16 17 18 19 20 21 22 23 24 25 26 27 28
000
FTUS41 KOKX 222300
TAFJFK
TAF
KJFK 222338Z 2300/2406 08008KT P6SM FEW020 OVC035
      TEMPO 2300/2303 BKN020
     FM230900 06009KT P6SM BKN035 OVC080
     FM232000 12010KT P6SM SCT035 BKN080
     FM240100 07005KT P6SM SCT080=

USA.gov is the U.S. government's official web portal to all federal, state and local government web resources and services.